Time;durP1;ratioP1;P1;durP2;ratioP2;P2;SDS_P1;SDS_P2;PMS_P1;PMS_P2;Temp;Humidity;BMP_temperature;BMP_pressure;BME280_temperature;BME280_humidity;BME280_pressure;Samples;Min_cycle;Max_cycle;Signal;HPM_P1;HPM_P2
2023/02/23 00:00:30;;;;;;;3.85;2.25;;;10.80;99.90;;;;;;5033577;28;20394;-74
2023/02/23 00:03:00;;;;;;;4.00;2.40;;;10.80;99.90;;;;;;5015275;28;20376;-74
2023/02/23 00:05:34;;;;;;;4.03;2.30;;;10.40;99.90;;;;;;5015342;28;20467;-74
2023/02/23 00:08:00;;;;;;;4.60;2.22;;;10.70;99.90;;;;;;5033712;28;20394;-74
2023/02/23 00:10:29;;;;;;;2.73;2.27;;;10.50;99.90;;;;;;5034250;28;20383;-74
2023/02/23 00:12:57;;;;;;;2.97;2.10;;;10.50;99.90;;;;;;5034994;28;20426;-74
2023/02/23 00:15:25;;;;;;;3.30;2.20;;;10.40;99.90;;;;;;5034298;28;20418;-74
2023/02/23 00:17:53;;;;;;;3.47;2.35;;;10.50;99.90;;;;;;5037324;28;20899;-74
2023/02/23 00:20:24;;;;;;;5.80;2.47;;;10.40;99.90;;;;;;5020335;28;20396;-74
2023/02/23 00:22:52;;;;;;;3.30;2.10;;;10.50;99.90;;;;;;5015274;28;20393;-74
2023/02/23 00:25:18;;;;;;;3.63;2.13;;;10.60;99.90;;;;;;5014069;28;20766;-74
2023/02/23 00:27:44;;;;;;;3.25;2.22;;;10.50;99.90;;;;;;5014754;28;20384;-74
2023/02/23 00:30:14;;;;;;;3.58;2.00;;;10.70;99.90;;;;;;5025144;28;20413;-74
2023/02/23 00:32:40;;;;;;;4.38;2.10;;;10.70;99.90;;;;;;5020078;28;20403;-74
2023/02/23 00:35:17;;;;;;;3.03;1.85;;;10.40;99.90;;;;;;5034462;28;20499;-74
2023/02/23 00:37:47;;;;;;;3.55;2.00;;;10.70;99.90;;;;;;5032859;28;20391;-74
2023/02/23 00:40:15;;;;;;;3.72;1.80;;;10.60;99.90;;;;;;5034643;28;20893;-74
2023/02/23 00:42:44;;;;;;;2.42;1.73;;;10.50;99.90;;;;;;5029103;28;20400;-74
2023/02/23 00:45:11;;;;;;;4.07;2.00;;;10.60;99.90;;;;;;5021689;28;20395;-75
2023/02/23 00:47:39;;;;;;;2.97;1.80;;;10.50;99.90;;;;;;5028922;28;20391;-75
2023/02/23 00:50:06;;;;;;;2.47;1.80;;;10.50;99.90;;;;;;5034806;28;20383;-75
2023/02/23 00:52:32;;;;;;;6.13;2.10;;;10.40;99.90;;;;;;5033947;28;20387;-75
2023/02/23 00:54:57;;;;;;;4.63;2.00;;;10.30;99.90;;;;;;5033462;28;20935;-75
2023/02/23 00:57:23;;;;;;;3.93;1.90;;;10.50;99.90;;;;;;5033543;28;20453;-75
2023/02/23 00:59:48;;;;;;;4.00;2.10;;;10.60;99.90;;;;;;5033451;28;20753;-75
2023/02/23 01:02:14;;;;;;;4.70;1.90;;;10.60;99.90;;;;;;5032782;28;20418;-75
2023/02/23 01:04:41;;;;;;;4.95;2.10;;;10.70;99.90;;;;;;5032309;28;21276;-75
2023/02/23 01:07:07;;;;;;;3.87;1.97;;;10.30;99.90;;;;;;5032894;28;20471;-74
2023/02/23 01:09:32;;;;;;;3.53;2.00;;;10.40;99.90;;;;;;5033108;28;20384;-74
2023/02/23 01:12:01;;;;;;;6.03;2.30;;;10.70;99.90;;;;;;5033606;28;20406;-74
2023/02/23 01:14:28;;;;;;;3.53;1.95;;;10.70;99.90;;;;;;5032594;28;20889;-74
2023/02/23 01:16:54;;;;;;;4.22;2.50;;;10.60;99.90;;;;;;5033148;28;20887;-74
2023/02/23 01:19:20;;;;;;;3.33;2.50;;;10.40;99.90;;;;;;5029120;28;20395;-74
2023/02/23 01:21:45;;;;;;;5.95;2.40;;;10.70;99.90;;;;;;5033334;28;20782;-74
2023/02/23 01:24:11;;;;;;;5.97;2.60;;;10.60;99.90;;;;;;5032285;28;20560;-74
2023/02/23 01:26:39;;;;;;;6.03;3.10;;;10.60;99.90;;;;;;5033287;28;20418;-74
2023/02/23 01:29:08;;;;;;;3.78;2.60;;;10.30;99.90;;;;;;5033149;28;20395;-75
2023/02/23 01:31:35;;;;;;;5.22;2.83;;;10.40;99.90;;;;;;5034046;28;20380;-75
2023/02/23 01:34:02;;;;;;;5.68;3.90;;;10.30;99.90;;;;;;5033397;28;20435;-74
2023/02/23 01:36:28;;;;;;;3.78;3.00;;;10.50;99.90;;;;;;5027656;28;20413;-74
2023/02/23 01:38:55;;;;;;;6.40;3.20;;;10.40;99.90;;;;;;5014487;28;20553;-75
2023/02/23 01:41:23;;;;;;;3.88;2.50;;;10.30;99.90;;;;;;5013945;28;20883;-74
2023/02/23 01:44:07;;;;;;;5.70;2.70;;;10.30;99.90;;;;;;5014009;28;20875;-74
2023/02/23 01:46:35;;;;;;;3.55;2.30;;;10.20;99.90;;;;;;5013394;28;20397;-74
2023/02/23 01:49:02;;;;;;;4.78;2.88;;;10.20;99.90;;;;;;5015705;28;20405;-74
2023/02/23 01:51:32;;;;;;;3.22;2.80;;;9.90;99.90;;;;;;5033393;28;20387;-74
2023/02/23 01:54:10;;;;;;;3.78;2.80;;;9.80;99.90;;;;;;5033168;28;20390;-73
2023/02/23 01:56:43;;;;;;;4.32;3.00;;;9.90;99.90;;;;;;5032408;28;20411;-74
2023/02/23 01:59:12;;;;;;;4.35;3.50;;;9.70;99.90;;;;;;5014849;28;20480;-74
2023/02/23 02:01:39;;;;;;;4.75;3.88;;;9.80;99.90;;;;;;5012783;28;20388;-74
2023/02/23 02:04:05;;;;;;;6.10;4.28;;;9.90;99.90;;;;;;5015966;28;20435;-73
2023/02/23 02:06:32;;;;;;;4.55;3.80;;;9.10;99.90;;;;;;5032334;28;20391;-74
2023/02/23 02:09:07;;;;;;;5.75;3.83;;;9.70;99.90;;;;;;5017954;28;20794;-73
2023/02/23 02:11:37;;;;;;;5.10;3.97;;;9.60;99.90;;;;;;5012760;28;20958;-74
2023/02/23 02:14:11;;;;;;;5.80;3.90;;;9.50;99.90;;;;;;5024687;28;20905;-74
2023/02/23 02:17:15;;;;;;;5.00;3.55;;;9.70;99.90;;;;;;5032120;28;21087;-74
2023/02/23 02:20:31;;;;;;;5.30;3.70;;;9.60;99.90;;;;;;5029734;28;20401;-73
2023/02/23 02:23:26;;;;;;;4.57;3.58;;;9.70;99.90;;;;;;5028995;28;20463;-74
2023/02/23 02:26:28;;;;;;;4.80;3.20;;;9.60;99.90;;;;;;5011922;28;21046;-74
2023/02/23 02:29:12;;;;;;;4.68;3.10;;;9.60;99.90;;;;;;5010997;28;20404;-74
2023/02/23 02:32:15;;;;;;;4.78;3.72;;;9.60;99.90;;;;;;5023175;28;20510;-74
2023/02/23 02:35:19;;;;;;;3.78;3.38;;;9.60;99.90;;;;;;5032219;28;20908;-74
2023/02/23 02:38:16;;;;;;;5.60;3.95;;;9.50;99.90;;;;;;5031715;28;20789;-74
2023/02/23 02:40:54;;;;;;;4.05;3.65;;;9.30;99.90;;;;;;5027581;28;20393;-74
2023/02/23 02:43:50;;;;;;;5.82;3.65;;;9.30;99.90;;;;;;5012404;28;20384;-74
2023/02/23 02:46:22;;;;;;;4.38;3.58;;;9.30;99.90;;;;;;5018671;28;20395;-74
2023/02/23 02:49:01;;;;;;;5.47;3.37;;;9.50;99.90;;;;;;5032066;28;20765;-74
2023/02/23 02:51:31;;;;;;;3.50;3.20;;;9.30;99.90;;;;;;5031948;28;20387;-74
2023/02/23 02:54:29;;;;;;;3.83;3.30;;;9.50;99.90;;;;;;5032328;28;20399;-74
2023/02/23 02:56:57;;;;;;;4.78;3.08;;;9.50;99.90;;;;;;5018300;28;20407;-74
2023/02/23 04:19:33;;;;;;;3.90;2.75;;;8.90;99.90;;;;;;5034496;28;20466;-73
2023/02/23 04:21:59;;;;;;;5.85;3.40;;;9.10;99.90;;;;;;5016518;28;20429;-74
2023/02/23 04:24:25;;;;;;;4.72;2.65;;;9.20;99.90;;;;;;5014864;28;20399;-74
2023/02/23 04:26:50;;;;;;;4.28;2.90;;;9.10;99.90;;;;;;5014388;28;20480;-74
2023/02/23 04:29:15;;;;;;;4.40;2.90;;;9.10;99.90;;;;;;5014921;28;20392;-74
2023/02/23 04:31:41;;;;;;;3.17;2.87;;;9.10;99.90;;;;;;5017859;28;20412;-73
2023/02/23 04:34:07;;;;;;;5.07;2.83;;;8.80;99.90;;;;;;5014766;28;20414;-74
2023/02/23 04:36:33;;;;;;;4.38;3.10;;;8.90;99.90;;;;;;5012940;28;20898;-74
2023/02/23 04:38:58;;;;;;;3.15;2.85;;;8.90;99.90;;;;;;5012883;28;20920;-73
2023/02/23 04:41:24;;;;;;;4.70;2.97;;;8.90;99.90;;;;;;5019946;28;20388;-73
2023/02/23 04:43:49;;;;;;;3.63;2.70;;;9.00;99.90;;;;;;5035419;28;20402;-73
2023/02/23 04:46:15;;;;;;;4.05;2.67;;;8.90;99.90;;;;;;5016210;28;20400;-74
2023/02/23 04:48:40;;;;;;;4.68;3.05;;;8.90;99.90;;;;;;5015401;28;20413;-73
2023/02/23 04:51:06;;;;;;;4.33;3.20;;;8.90;99.90;;;;;;5014123;28;20439;-74
2023/02/23 04:53:32;;;;;;;3.80;2.93;;;8.90;99.90;;;;;;5012650;28;20400;-74
2023/02/23 04:55:57;;;;;;;4.30;3.20;;;8.90;99.90;;;;;;5026658;28;20422;-73
2023/02/23 04:58:23;;;;;;;4.72;3.20;;;8.90;99.90;;;;;;5034824;28;20390;-74
2023/02/23 05:00:48;;;;;;;4.00;3.13;;;8.80;99.90;;;;;;5022876;28;20400;-74
2023/02/23 05:03:16;;;;;;;5.13;3.33;;;8.80;99.90;;;;;;5014385;28;20388;-74
2023/02/23 05:05:42;;;;;;;3.13;2.80;;;8.70;99.90;;;;;;5014217;28;20420;-74
2023/02/23 05:08:07;;;;;;;3.30;2.93;;;8.60;99.90;;;;;;5034064;28;20410;-74
2023/02/23 05:10:33;;;;;;;4.00;2.93;;;8.60;99.90;;;;;;5033748;28;20405;-74
2023/02/23 05:12:59;;;;;;;3.80;3.50;;;8.80;99.90;;;;;;5033786;28;20865;-74
2023/02/23 05:15:25;;;;;;;4.53;3.20;;;8.90;99.90;;;;;;5018606;28;20424;-74
2023/02/23 05:17:51;;;;;;;4.97;3.67;;;8.90;99.90;;;;;;5013682;28;20385;-74
2023/02/23 05:20:16;;;;;;;5.43;3.47;;;8.90;99.90;;;;;;5036749;23;20401;31
2023/02/23 05:22:42;;;;;;;6.13;3.60;;;9.10;99.90;;;;;;4976393;28;20431;-78
2023/02/23 05:25:08;;;;;;;4.30;3.90;;;8.90;99.90;;;;;;4977184;28;20432;-78
2023/02/23 05:27:35;;;;;;;5.85;3.90;;;9.00;99.90;;;;;;4978736;28;20401;-78
2023/02/23 05:30:01;;;;;;;5.28;3.95;;;9.00;99.90;;;;;;4984633;28;20376;-78
2023/02/23 05:32:27;;;;;;;6.05;3.85;;;8.90;99.90;;;;;;5001523;28;20397;-78
2023/02/23 05:34:52;;;;;;;7.88;4.40;;;9.00;99.90;;;;;;4998453;28;20402;-78
2023/02/23 05:37:18;;;;;;;5.97;4.40;;;8.80;99.90;;;;;;4995385;28;20485;-78
2023/02/23 05:39:45;;;;;;;6.60;4.10;;;9.00;99.90;;;;;;4992590;28;20395;-78
2023/02/23 05:42:11;;;;;;;5.90;4.30;;;9.10;99.90;;;;;;4994204;28;20467;-78
2023/02/23 05:44:37;;;;;;;3.97;3.53;;;9.10;99.90;;;;;;5005009;28;20411;-79
2023/02/23 05:47:02;;;;;;;6.03;4.25;;;8.80;99.90;;;;;;4979575;28;20889;-78
2023/02/23 05:49:28;;;;;;;4.55;3.80;;;10.80;99.90;;;;;;4993551;28;20386;-78
2023/02/23 05:51:53;;;;;;;4.85;4.07;;;9.10;99.90;;;;;;4996569;28;20405;-78
2023/02/23 05:54:19;;;;;;;6.60;3.80;;;9.00;99.90;;;;;;4997627;28;20390;-78
2023/02/23 05:56:44;;;;;;;5.20;3.63;;;9.20;99.90;;;;;;4996650;28;20410;-78
2023/02/23 05:59:11;;;;;;;4.20;3.80;;;9.10;99.90;;;;;;4995652;28;20402;-78
2023/02/23 06:01:37;;;;;;;4.50;3.70;;;9.00;99.90;;;;;;4992402;28;20403;-78
2023/02/23 06:04:04;;;;;;;5.00;4.50;;;9.10;99.90;;;;;;5007665;28;20402;-78
2023/02/23 06:06:29;;;;;;;5.95;3.90;;;9.10;99.90;;;;;;4992176;28;20406;-79
2023/02/23 06:08:55;;;;;;;4.32;3.90;;;8.90;99.90;;;;;;5001587;28;20394;-78
2023/02/23 06:11:21;;;;;;;5.23;4.33;;;8.90;99.90;;;;;;5017822;28;20406;-79
2023/02/23 06:13:47;;;;;;;5.38;4.20;;;8.80;99.90;;;;;;4995132;28;20391;-78
2023/02/23 06:16:12;;;;;;;5.75;4.70;;;8.90;99.90;;;;;;4996186;28;20421;-78
2023/02/23 06:18:38;;;;;;;7.40;4.43;;;9.10;99.90;;;;;;4996884;28;20461;-78
2023/02/23 06:21:04;;;;;;;6.10;4.77;;;9.30;99.90;;;;;;4992756;28;20418;-78
2023/02/23 06:23:31;;;;;;;8.73;4.73;;;9.10;99.90;;;;;;4992879;28;20395;-78
2023/02/23 06:25:58;;;;;;;5.88;5.20;;;9.00;99.90;;;;;;4992403;28;20391;-78
2023/02/23 06:28:24;;;;;;;6.32;4.68;;;8.90;99.90;;;;;;4991201;28;20402;-78
2023/02/23 06:30:54;;;;;;;6.77;5.90;;;8.90;99.90;;;;;;4991328;28;20893;-78
2023/02/23 06:33:20;;;;;;;6.40;5.70;;;8.80;99.90;;;;;;4993041;28;20405;-78
2023/02/23 06:35:45;;;;;;;5.63;5.00;;;8.70;99.90;;;;;;4992006;28;20399;-78
2023/02/23 06:38:11;;;;;;;7.80;5.83;;;8.80;99.90;;;;;;4992490;28;20398;-78
2023/02/23 06:40:38;;;;;;;7.00;5.63;;;9.10;99.90;;;;;;4992295;28;20494;-78
2023/02/23 06:43:04;;;;;;;7.13;5.55;;;8.70;99.90;;;;;;4991463;28;20473;-78
2023/02/23 06:45:30;;;;;;;6.90;5.33;;;8.50;99.90;;;;;;4992169;28;20845;-78
2023/02/23 06:47:56;;;;;;;7.57;5.25;;;8.80;99.90;;;;;;4989931;28;20938;-77
2023/02/23 06:50:22;;;;;;;6.45;5.72;;;9.10;99.90;;;;;;4991242;28;20395;-77
2023/02/23 06:52:48;;;;;;;5.50;5.00;;;9.00;99.90;;;;;;4990326;28;20409;-77
2023/02/23 06:55:14;;;;;;;8.48;5.20;;;8.90;99.90;;;;;;4990951;28;20501;-77
2023/02/23 06:57:40;;;;;;;6.45;5.00;;;10.50;99.90;;;;;;4991105;28;20757;-78
2023/02/23 07:00:07;;;;;;;8.30;5.93;;;8.80;99.90;;;;;;4989568;28;20395;-77
2023/02/23 07:02:34;;;;;;;6.90;4.90;;;9.00;99.90;;;;;;4991889;28;20481;-78
2023/02/23 07:04:59;;;;;;;7.65;5.20;;;8.80;99.90;;;;;;4990716;28;20390;-78
2023/02/23 07:07:25;;;;;;;7.18;5.40;;;9.00;99.90;;;;;;4990561;28;20404;-78
2023/02/23 07:09:50;;;;;;;8.90;5.80;;;9.20;99.90;;;;;;4991453;28;20768;-78
2023/02/23 07:12:16;;;;;;;8.17;6.00;;;9.10;99.90;;;;;;4992370;28;20382;-78
2023/02/23 07:14:41;;;;;;;7.30;5.37;;;9.30;99.90;;;;;;4991333;28;20402;-78
2023/02/23 07:17:07;;;;;;;8.38;5.50;;;9.30;99.90;;;;;;4991556;28;20398;-78
2023/02/23 07:19:32;;;;;;;7.17;5.47;;;9.30;99.90;;;;;;4992311;28;20813;-78
2023/02/23 07:21:58;;;;;;;6.87;5.37;;;9.10;99.90;;;;;;4991227;28;20398;-78
2023/02/23 07:24:23;;;;;;;7.47;5.40;;;9.10;99.90;;;;;;4988758;28;20489;-78
2023/02/23 07:26:50;;;;;;;9.45;6.20;;;9.20;99.90;;;;;;4991301;28;20390;-78
2023/02/23 07:29:16;;;;;;;6.28;5.65;;;9.30;99.90;;;;;;4994204;28;20394;-78
2023/02/23 07:31:42;;;;;;;7.77;5.30;;;9.20;99.90;;;;;;4993477;28;20881;-78
2023/02/23 07:34:08;;;;;;;6.83;5.97;;;9.40;99.90;;;;;;4992009;28;20386;-78
2023/02/23 07:36:35;;;;;;;8.20;6.60;;;9.40;99.90;;;;;;4990875;28;20421;-78
2023/02/23 07:39:01;;;;;;;8.03;6.87;;;9.40;99.90;;;;;;4991334;28;20409;-78
2023/02/23 07:41:27;;;;;;;8.70;6.47;;;9.50;99.90;;;;;;4991185;28;20885;-78
2023/02/23 07:43:52;;;;;;;7.27;6.27;;;9.70;99.90;;;;;;4991468;28;20413;-78
2023/02/23 07:46:18;;;;;;;7.20;6.28;;;9.60;99.90;;;;;;4991281;28;20429;-78
2023/02/23 07:48:44;;;;;;;8.90;7.13;;;9.60;99.90;;;;;;4991864;28;20394;-78
2023/02/23 07:51:11;;;;;;;9.15;6.30;;;9.70;99.90;;;;;;4983588;28;20398;-78
2023/02/23 07:53:38;;;;;;;7.87;6.30;;;9.60;99.90;;;;;;4975506;28;20399;-78
2023/02/23 07:56:04;;;;;;;7.70;5.72;;;9.60;99.90;;;;;;4989689;28;20406;-78
2023/02/23 07:58:30;;;;;;;8.37;6.97;;;9.70;99.90;;;;;;4990226;28;20777;-79
2023/02/23 08:00:56;;;;;;;7.20;6.05;;;9.80;99.90;;;;;;4990201;28;20391;-79
2023/02/23 08:03:21;;;;;;;9.13;5.75;;;9.90;99.90;;;;;;4985689;28;20390;-78
2023/02/23 08:05:47;;;;;;;9.32;6.10;;;10.10;99.90;;;;;;4988977;28;20394;-78
2023/02/23 08:08:12;;;;;;;10.73;6.88;;;9.90;99.90;;;;;;4996146;28;20402;-78
2023/02/23 08:10:38;;;;;;;8.07;6.00;;;9.90;99.90;;;;;;4995937;28;20418;-79
2023/02/23 08:13:04;;;;;;;8.40;7.30;;;10.00;99.90;;;;;;4995361;28;20449;-78
2023/02/23 08:15:30;;;;;;;10.03;7.23;;;9.90;99.90;;;;;;4983189;28;20747;-77
2023/02/23 08:17:56;;;;;;;8.50;6.78;;;10.10;99.90;;;;;;4975761;28;20471;-78
2023/02/23 08:20:22;;;;;;;8.98;7.18;;;10.10;99.90;;;;;;4982803;28;20437;-77
2023/02/23 08:22:55;;;;;;;8.55;6.97;;;10.00;99.90;;;;;;4995017;28;20398;-78
2023/02/23 08:25:21;;;;;;;7.90;6.67;;;10.10;99.90;;;;;;4976332;28;20589;-78
2023/02/23 08:27:47;;;;;;;12.10;7.37;;;9.80;99.90;;;;;;4975170;28;20479;-77
2023/02/23 08:30:13;;;;;;;8.98;6.63;;;9.90;99.90;;;;;;4975534;28;20396;-78
2023/02/23 08:32:39;;;;;;;8.95;7.28;;;10.10;99.90;;;;;;4975460;28;20499;-77
2023/02/23 08:35:06;;;;;;;7.80;6.65;;;10.20;99.90;;;;;;4992966;28;20501;-77
2023/02/23 08:37:32;;;;;;;8.43;7.53;;;10.10;99.90;;;;;;4994677;28;20390;-77
2023/02/23 08:39:59;;;;;;;10.85;7.40;;;9.70;99.90;;;;;;4993197;28;20440;-78
2023/02/23 08:42:25;;;;;;;12.05;6.95;;;10.10;99.90;;;;;;4994362;28;20414;-78
2023/02/23 08:44:51;;;;;;;9.20;7.20;;;9.90;99.90;;;;;;4994898;28;20387;-78
2023/02/23 08:47:20;;;;;;;9.27;7.23;;;10.10;99.90;;;;;;4993350;28;20383;-78
2023/02/23 08:49:46;;;;;;;11.07;7.00;;;10.60;99.90;;;;;;4992895;28;20402;-78
2023/02/23 08:52:12;;;;;;;8.73;7.07;;;10.70;99.90;;;;;;4993334;28;20395;-76
2023/02/23 08:54:37;;;;;;;10.03;7.40;;;10.40;99.90;;;;;;4994782;28;20437;-78
2023/02/23 08:57:03;;;;;;;9.35;7.03;;;11.30;99.90;;;;;;4993999;28;20394;-78
2023/02/23 08:59:28;;;;;;;10.60;6.63;;;13.80;99.90;;;;;;4992232;28;20457;-78
2023/02/23 09:01:54;;;;;;;9.87;7.13;;;11.40;99.90;;;;;;4994057;28;20793;-78
2023/02/23 09:04:19;;;;;;;10.00;7.00;;;10.50;99.90;;;;;;4993761;28;20450;-78
2023/02/23 09:06:46;;;;;;;7.55;6.82;;;11.30;99.90;;;;;;4993396;28;20382;-78
2023/02/23 09:09:12;;;;;;;7.83;6.37;;;11.00;99.90;;;;;;4992339;28;20809;-79
2023/02/23 09:11:37;;;;;;;9.85;7.20;;;11.50;99.90;;;;;;4994099;28;20486;-79
2023/02/23 09:14:03;;;;;;;8.63;6.93;;;11.60;99.90;;;;;;4993720;28;20418;-79
2023/02/23 09:16:28;;;;;;;9.20;6.70;;;14.60;99.90;;;;;;4992046;28;20859;-79
2023/02/23 09:18:54;;;;;;;9.35;6.75;;;11.30;99.90;;;;;;4993784;28;20885;-78
2023/02/23 09:21:23;;;;;;;11.90;7.10;;;11.70;99.90;;;;;;4993218;28;20430;-78
2023/02/23 09:23:51;;;;;;;8.48;7.10;;;11.50;99.90;;;;;;4991716;28;20415;-78
2023/02/23 09:26:18;;;;;;;7.85;6.57;;;11.70;99.90;;;;;;4992914;28;20403;-78
2023/02/23 09:28:44;;;;;;;11.45;7.30;;;11.60;99.90;;;;;;4991720;28;20769;-79
2023/02/23 09:31:13;;;;;;;10.45;7.97;;;12.10;99.90;;;;;;4994369;28;20885;-78
2023/02/23 09:33:39;;;;;;;9.60;7.50;;;11.70;99.90;;;;;;4994098;28;20412;-78
2023/02/23 09:36:16;;;;;;;12.20;7.40;;;12.00;99.90;;;;;;4992266;28;20407;-78
2023/02/23 09:38:43;;;;;;;10.27;8.20;;;11.80;99.90;;;;;;4993751;28;20405;-78
2023/02/23 09:41:44;;;;;;;9.32;6.90;;;12.30;99.90;;;;;;4992819;28;20895;-78
2023/02/23 09:44:17;;;;;;;8.73;6.40;;;12.40;99.90;;;;;;4992361;28;20402;-78
2023/02/23 09:46:48;;;;;;;8.75;6.30;;;12.60;99.90;;;;;;4993057;28;20469;-79
2023/02/23 09:49:18;;;;;;;9.98;6.90;;;12.50;99.90;;;;;;4993283;28;20398;-78
2023/02/23 09:51:56;;;;;;;9.48;6.50;;;12.50;99.90;;;;;;4998020;28;20717;-79
2023/02/23 09:54:25;;;;;;;9.38;6.70;;;12.60;99.90;;;;;;4996578;28;20413;-78
2023/02/23 09:56:52;;;;;;;8.50;5.97;;;12.60;84.30;;;;;;4996928;28;20501;-78
2023/02/23 09:59:20;;;;;;;11.80;6.07;;;12.80;29.50;;;;;;4994755;28;20809;-78
2023/02/23 10:01:48;;;;;;;7.88;5.72;;;13.30;1.00;;;;;;4992642;28;20911;-78
2023/02/23 10:04:31;;;;;;;7.82;5.47;;;13.20;1.00;;;;;;4992965;28;20817;-78
2023/02/23 10:07:10;;;;;;;7.50;5.43;;;12.90;1.00;;;;;;4991735;28;20406;-78
2023/02/23 10:09:57;;;;;;;6.47;5.15;;;12.80;1.00;;;;;;4992350;28;20387;-78
2023/02/23 10:12:43;;;;;;;9.23;5.90;;;13.10;1.00;;;;;;4993348;28;20404;-78
2023/02/23 10:15:33;;;;;;;7.90;5.70;;;13.20;1.00;;;;;;4992361;28;20437;-78
2023/02/23 10:18:07;;;;;;;9.05;5.30;;;13.30;1.00;;;;;;4992574;28;20387;-78
2023/02/23 10:20:49;;;;;;;7.10;5.10;;;13.40;1.00;;;;;;5007782;28;20458;-78
2023/02/23 10:23:22;;;;;;;9.37;5.30;;;13.40;1.00;;;;;;4991624;28;20409;-77
2023/02/23 10:25:50;;;;;;;6.33;4.80;;;13.50;1.00;;;;;;4989007;28;20801;-77
2023/02/23 10:28:20;;;;;;;7.00;4.50;;;13.00;99.90;;;;;;4976871;28;20965;-77
2023/02/23 10:30:48;;;;;;;7.03;5.07;;;13.80;99.90;;;;;;4985947;28;20460;-77
2023/02/23 10:33:35;;;;;;;11.10;5.22;;;13.60;1.00;;;;;;4991637;28;20811;-78
2023/02/23 10:36:24;;;;;;;8.70;4.90;;;13.30;99.90;;;;;;4992486;28;20406;-78
2023/02/23 10:38:50;;;;;;;9.05;5.60;;;13.60;99.90;;;;;;4990984;28;20406;-78
2023/02/23 10:41:16;;;;;;;6.50;5.47;;;13.30;99.90;;;;;;4992132;28;20391;-78
2023/02/23 10:43:41;;;;;;;10.23;5.70;;;13.10;1.00;;;;;;4991574;28;20850;-77
2023/02/23 10:46:18;;;;;;;6.60;5.07;;;13.00;1.00;;;;;;4991740;28;20418;-78
2023/02/23 10:48:46;;;;;;;9.25;5.75;;;13.70;1.00;;;;;;4991624;28;20393;-78
2023/02/23 10:51:23;;;;;;;7.87;5.30;;;14.50;99.90;;;;;;5007625;28;20437;-78
2023/02/23 10:53:49;;;;;;;7.83;5.47;;;14.30;1.00;;;;;;4991796;28;20454;-78
2023/02/23 10:56:17;;;;;;;10.47;5.10;;;13.90;99.90;;;;;;4991334;28;20420;-78
2023/02/23 10:58:49;;;;;;;8.18;5.38;;;14.00;1.00;;;;;;4992273;28;20403;-77
2023/02/23 11:01:37;;;;;;;6.93;5.35;;;14.00;1.00;;;;;;4991900;28;20828;-77
2023/02/23 11:04:26;;;;;;;8.70;5.90;;;14.10;99.90;;;;;;4990558;28;20394;-78
2023/02/23 11:07:15;;;;;;;6.90;5.90;;;14.20;99.90;;;;;;4987454;28;20746;-78
2023/02/23 11:09:40;;;;;;;7.00;6.18;;;13.50;99.90;;;;;;4990331;28;20421;-78
2023/02/23 11:12:35;;;;;;;12.02;6.45;;;13.90;1.00;;;;;;4992090;28;20386;-78
2023/02/23 11:15:42;;;;;;;10.10;6.43;;;13.50;1.00;;;;;;4989048;28;20486;-78
2023/02/23 11:18:22;;;;;;;8.43;6.55;;;13.80;1.00;;;;;;4991156;28;20456;-78
2023/02/23 11:20:48;;;;;;;10.50;6.90;;;14.10;1.00;;;;;;4990978;28;20428;-79
2023/02/23 11:23:28;;;;;;;9.85;6.57;;;13.70;1.00;;;;;;4992288;28;20432;-79
2023/02/23 11:26:00;;;;;;;10.07;7.50;;;13.50;1.00;;;;;;4992678;28;20410;-78
2023/02/23 11:28:40;;;;;;;8.30;6.30;;;13.80;1.00;;;;;;4988362;28;20396;-78
2023/02/23 11:31:21;;;;;;;8.38;5.90;;;13.80;1.00;;;;;;4989932;28;20402;-79
2023/02/23 11:33:49;;;;;;;9.27;5.38;;;14.00;99.90;;;;;;4994856;28;20444;-78
2023/02/23 11:36:28;;;;;;;7.35;5.60;;;13.80;99.90;;;;;;4992451;28;20501;-79
2023/02/23 11:39:05;;;;;;;7.30;5.50;;;14.20;99.90;;;;;;4993560;28;20426;-78
2023/02/23 11:41:34;;;;;;;9.10;5.40;;;13.80;99.90;;;;;;4993752;28;20382;-79
2023/02/23 11:44:01;;;;;;;10.00;5.60;;;14.30;99.90;;;;;;4991701;28;20398;-78
2023/02/23 11:46:29;;;;;;;7.40;6.10;;;13.70;91.10;;;;;;4989089;28;20508;-78
2023/02/23 11:49:13;;;;;;;6.43;5.30;;;14.00;96.00;;;;;;4994319;28;20490;-77
2023/02/23 11:51:45;;;;;;;7.60;6.10;;;14.20;1.00;;;;;;4997332;28;20398;-79
2023/02/23 11:54:29;;;;;;;9.30;6.70;;;14.60;1.00;;;;;;4997098;28;20444;-77
2023/02/23 11:56:56;;;;;;;7.78;5.45;;;15.20;1.00;;;;;;4995389;28;20402;-77
2023/02/23 11:59:38;;;;;;;7.57;6.20;;;16.30;1.00;;;;;;4985832;28;20399;-77
2023/02/23 12:02:18;;;;;;;8.63;6.10;;;15.30;1.00;;;;;;4983062;28;20402;-77
2023/02/23 12:04:46;;;;;;;8.25;6.10;;;16.10;99.90;;;;;;4975701;28;20409;-78
2023/02/23 12:07:23;;;;;;;9.63;5.80;;;16.30;1.00;;;;;;4987834;28;20415;-77
2023/02/23 12:09:56;;;;;;;10.40;6.43;;;16.20;99.90;;;;;;4994497;28;20398;-79
2023/02/23 12:12:24;;;;;;;8.85;6.47;;;16.10;28.80;;;;;;4990526;28;20480;-78
2023/02/23 12:15:01;;;;;;;8.43;6.37;;;15.10;1.00;;;;;;4992937;28;20398;-78
2023/02/23 12:17:40;;;;;;;9.87;6.63;;;16.00;99.90;;;;;;4987766;28;20890;-77
2023/02/23 12:20:20;;;;;;;10.48;6.57;;;15.90;99.90;;;;;;4987938;28;20805;-78
2023/02/23 12:22:51;;;;;;;10.85;6.80;;;15.40;1.00;;;;;;4996650;28;20419;-79
2023/02/23 12:25:22;;;;;;;9.90;6.10;;;15.20;1.00;;;;;;4999547;28;20401;-79
2023/02/23 12:27:58;;;;;;;6.38;5.38;;;15.40;1.00;;;;;;4995503;28;20383;-79
2023/02/23 12:30:37;;;;;;;9.10;5.83;;;15.50;1.00;;;;;;4995231;28;21002;-79
2023/02/23 12:33:28;;;;;;;8.10;5.80;;;17.00;1.00;;;;;;5002777;28;20457;-77
2023/02/23 12:36:12;;;;;;;7.93;5.22;;;15.50;1.00;;;;;;4994326;28;20399;-78
2023/02/23 12:39:06;;;;;;;8.13;5.20;;;15.00;99.90;;;;;;4995273;28;20391;-77
2023/02/23 12:41:54;;;;;;;9.93;6.35;;;14.60;1.00;;;;;;4993097;28;20386;-78
2023/02/23 12:44:57;;;;;;;6.80;5.03;;;14.40;99.90;;;;;;4975417;28;20396;-78
2023/02/23 12:47:48;;;;;;;8.05;5.50;;;14.30;99.90;;;;;;4980175;28;20379;-78
2023/02/23 12:50:27;;;;;;;7.03;5.07;;;14.40;1.00;;;;;;4993689;28;20418;-78
2023/02/23 12:52:57;;;;;;;9.90;5.00;;;14.40;99.90;;;;;;5004582;28;20394;-78
2023/02/23 12:55:50;;;;;;;6.45;5.20;;;15.20;99.90;;;;;;4994766;28;20420;-78
2023/02/23 12:58:22;;;;;;;9.43;4.38;;;14.90;55.00;;;;;;4992525;28;20414;-78
2023/02/23 13:00:54;;;;;;;7.50;4.10;;;15.00;99.90;;;;;;5009207;28;20401;-78
2023/02/23 13:03:44;;;;;;;9.10;4.32;;;14.50;99.90;;;;;;4995964;28;20977;-78
2023/02/23 13:06:29;;;;;;;5.30;4.20;;;15.20;99.90;;;;;;4992742;28;20433;-78
2023/02/23 13:09:20;;;;;;;9.80;4.97;;;15.50;1.00;;;;;;4994362;28;20900;-78
2023/02/23 13:11:51;;;;;;;7.73;4.80;;;15.50;71.80;;;;;;4992788;28;20825;-78
2023/02/23 13:14:38;;;;;;;8.55;4.57;;;15.20;1.00;;;;;;5009931;28;20781;-78
2023/02/23 13:17:16;;;;;;;11.80;4.57;;;15.30;1.00;;;;;;5012282;28;20402;-78
2023/02/23 13:20:05;;;;;;;11.45;5.03;;;15.70;1.00;;;;;;5010981;28;20486;-78
2023/02/23 13:22:35;;;;;;;9.60;5.07;;;15.90;99.90;;;;;;4989133;28;21000;-78
2023/02/23 13:25:10;;;;;;;8.77;4.82;;;15.40;1.00;;;;;;4995762;28;20387;-78
2023/02/23 13:27:41;;;;;;;12.00;5.32;;;16.50;1.00;;;;;;4994617;28;20379;-77
2023/02/23 13:30:11;;;;;;;6.32;4.60;;;16.00;1.00;;;;;;4994610;28;20405;-77
2023/02/23 13:32:38;;;;;;;7.85;4.82;;;16.10;99.90;;;;;;4994887;28;20402;-78
2023/02/23 13:35:12;;;;;;;12.30;5.50;;;16.60;99.90;;;;;;4993826;28;20399;-78
2023/02/23 13:38:11;;;;;;;12.00;5.10;;;16.10;99.90;;;;;;4993559;28;20386;-77
2023/02/23 13:40:52;;;;;;;9.15;5.00;;;16.30;92.30;;;;;;4973783;28;20382;-77
2023/02/23 13:43:27;;;;;;;9.27;4.20;;;15.90;1.00;;;;;;4983466;28;20402;-77
2023/02/23 13:46:01;;;;;;;9.15;4.60;;;16.60;1.00;;;;;;4992701;28;20405;-77
2023/02/23 13:48:52;;;;;;;7.88;3.92;;;17.10;1.00;;;;;;4993515;28;20441;-78
2023/02/23 13:51:47;;;;;;;7.40;4.00;;;17.60;1.00;;;;;;4982722;28;20408;-78
2023/02/23 13:54:13;;;;;;;8.40;4.55;;;17.70;1.00;;;;;;4994194;28;20410;-78
2023/02/23 13:56:53;;;;;;;8.10;4.15;;;16.60;1.00;;;;;;4994156;28;20406;-79
2023/02/23 13:59:22;;;;;;;9.55;4.47;;;16.80;1.00;;;;;;4994176;28;20382;-78
2023/02/23 14:01:51;;;;;;;10.02;4.22;;;17.60;99.90;;;;;;4994389;28;20469;-78
2023/02/23 14:04:26;;;;;;;12.00;3.80;;;17.20;1.00;;;;;;4994330;28;20853;-78
2023/02/23 14:07:14;;;;;;;6.60;4.10;;;18.10;99.90;;;;;;4992249;28;20414;-79
2023/02/23 14:09:52;;;;;;;8.57;4.07;;;17.50;99.90;;;;;;4993005;28;20726;-78
2023/02/23 14:12:31;;;;;;;12.43;4.30;;;17.70;99.90;;;;;;4986946;28;20438;-78
2023/02/23 14:15:39;;;;;;;11.40;3.70;;;17.10;99.90;;;;;;4993194;28;20397;-78
2023/02/23 14:18:30;;;;;;;9.13;3.42;;;17.10;1.00;;;;;;4986273;28;20396;-78
2023/02/23 14:21:20;;;;;;;8.23;3.33;;;16.50;99.90;;;;;;4986373;28;20417;-78
2023/02/23 14:24:01;;;;;;;7.10;3.90;;;16.20;99.90;;;;;;4993125;28;20399;-78
2023/02/23 14:26:26;;;;;;;9.25;4.20;;;16.60;1.00;;;;;;4993439;28;20410;-78
2023/02/23 14:29:24;;;;;;;8.20;3.27;;;16.80;99.90;;;;;;4993268;28;20793;-78
2023/02/23 14:31:57;;;;;;;7.85;3.97;;;16.90;99.90;;;;;;4991644;28;20391;-78
2023/02/23 14:34:48;;;;;;;12.05;3.58;;;17.60;1.00;;;;;;4993675;28;20853;-78